Terminal Aerodrome Forecast
Issued by NWS Goodland, KS

Home | Current Version | Previous Version | Text Only | Print | Product List | Glossary On
Versions: 1 2 3 4 5 6 7 8 9 10 11 12 13 14 15 16 17 18 19
000
FTUS43 KGLD 270539
TAFGLD
TAF
KGLD 270539Z 2706/2806 23008KT 1/2SM FG VV002
     FM270700 25006KT 5SM BR SCT002
     FM270800 27006KT P6SM FEW150
      TEMPO 2712/2714 5SM BR
     FM271700 18004KT P6SM FEW250
     FM272100 16008KT P6SM FEW200=

USA.gov is the U.S. government's official web portal to all federal, state and local government web resources and services.